createdAt,value
2023-01-01T00:00:19.125Z,16.23
2023-01-01T00:03:06.126Z,14.30
2023-01-01T00:05:34.264Z,9.80
2023-01-01T00:08:05.079Z,12.30
2023-01-01T00:13:00.476Z,10.23
2023-01-01T00:15:28.226Z,7.80
2023-01-01T00:17:55.491Z,9.98
2023-01-01T00:20:22.847Z,9.55
2023-01-01T00:22:55.033Z,9.55
2023-01-01T00:25:24.248Z,7.70
2023-01-01T00:27:51.426Z,9.30
2023-01-01T00:30:18.914Z,8.40
2023-01-01T00:32:55.252Z,9.30
2023-01-01T00:35:24.882Z,7.82
2023-01-01T00:37:52.576Z,9.70
2023-01-01T00:40:19.927Z,6.70
2023-01-01T00:42:46.802Z,9.55
2023-01-01T00:45:20.545Z,7.45
2023-01-01T00:47:49.007Z,6.78
2023-01-01T00:50:16.444Z,8.77
2023-01-01T00:52:43.645Z,7.75
2023-01-01T00:55:11.763Z,6.93
2023-01-01T00:57:38.693Z,7.65
2023-01-01T01:00:06.589Z,7.53
2023-01-01T01:02:33.936Z,9.50
2023-01-01T01:05:04.848Z,8.93
2023-01-01T01:07:38.574Z,8.50
2023-01-01T01:10:07.012Z,9.75
2023-01-01T01:12:35.088Z,8.93
2023-01-01T01:15:03.729Z,9.45
2023-01-01T01:17:30.667Z,8.63
2023-01-01T01:19:57.908Z,9.98
2023-01-01T01:22:28.787Z,8.52
2023-01-01T01:27:24.113Z,11.18
2023-01-01T01:29:51.581Z,9.27
2023-01-01T01:32:18.684Z,8.70
2023-01-01T01:34:46.348Z,8.88
2023-01-01T01:37:13.861Z,7.82
2023-01-01T01:39:41.120Z,9.52
2023-01-01T01:42:08.188Z,7.40
2023-01-01T01:44:53.009Z,8.55
2023-01-01T01:47:46.462Z,6.93
2023-01-01T01:50:17.255Z,6.88
2023-01-01T01:52:59.907Z,9.18
2023-01-01T01:55:31.003Z,7.70
2023-01-01T01:57:58.173Z,6.68
2023-01-01T02:00:25.356Z,8.25
2023-01-01T02:03:18.316Z,7.05
2023-01-01T02:05:46.485Z,8.73
2023-01-01T02:08:15.783Z,10.23
2023-01-01T02:10:43.685Z,10.65
2023-01-01T02:13:11.320Z,9.35
2023-01-01T02:15:53.054Z,9.95
2023-01-01T02:18:29.335Z,8.73
2023-01-01T02:21:07.172Z,9.05
2023-01-01T02:24:00.734Z,10.55
2023-01-01T02:26:40.665Z,8.23
2023-01-01T02:29:19.686Z,7.22
2023-01-01T02:31:58.344Z,6.75
2023-01-01T02:34:30.223Z,9.02
2023-01-01T02:37:01.160Z,8.40
2023-01-01T02:39:32.195Z,7.35
2023-01-01T02:42:01.117Z,9.18
2023-01-01T02:44:30.812Z,6.28
2023-01-01T02:47:07.408Z,7.53
2023-01-01T02:49:40.756Z,7.30
2023-01-01T02:52:16.230Z,6.85
2023-01-01T02:54:53.890Z,6.72
2023-01-01T02:57:43.450Z,7.53
2023-01-01T03:00:27.704Z,7.45
2023-01-01T03:03:17.741Z,7.68
2023-01-01T03:06:23.845Z,8.57
2023-01-01T03:09:11.963Z,8.88
2023-01-01T03:11:50.992Z,6.75
2023-01-01T03:14:40.108Z,7.05
2023-01-01T03:17:17.467Z,7.25
2023-01-01T03:19:49.064Z,9.52
2023-01-01T03:22:19.057Z,6.72
2023-01-01T03:24:58.167Z,6.47
2023-01-01T03:27:37.559Z,8.07
2023-01-01T03:30:09.121Z,7.28
2023-01-01T03:33:03.337Z,9.15
2023-01-01T03:35:41.075Z,6.78
2023-01-01T03:38:17.032Z,7.88
2023-01-01T03:40:47.164Z,8.38
2023-01-01T03:43:25.247Z,6.30
2023-01-01T03:45:54.553Z,6.75
2023-01-01T03:48:21.521Z,7.05
2023-01-01T03:51:16.447Z,6.47
2023-01-01T03:53:44.046Z,6.43
2023-01-01T03:56:27.277Z,7.40
2023-01-01T03:59:01.109Z,6.68
2023-01-01T04:01:36.145Z,7.40
2023-01-01T04:04:05.300Z,9.60
2023-01-01T04:06:33.900Z,8.18
2023-01-01T04:09:03.304Z,9.48
2023-01-01T04:11:51.608Z,6.10
2023-01-01T04:14:39.360Z,9.43
2023-01-01T04:17:08.302Z,7.90
2023-01-01T04:19:35.385Z,6.90
2023-01-01T04:22:03.350Z,6.95
2023-01-01T04:24:30.593Z,5.75
2023-01-01T04:26:57.848Z,6.40
2023-01-01T04:29:24.815Z,7.80
2023-01-01T04:31:52.150Z,6.15
2023-01-01T04:34:19.327Z,8.10
2023-01-01T04:36:46.694Z,7.03
2023-01-01T04:39:13.714Z,6.93
2023-01-01T04:41:40.924Z,5.90
2023-01-01T04:44:07.801Z,6.32
2023-01-01T04:46:35.006Z,6.75
2023-01-01T04:49:01.909Z,6.85
2023-01-01T04:51:29.087Z,6.85
2023-01-01T04:53:59.338Z,9.02
2023-01-01T04:56:26.584Z,8.23
2023-01-01T04:58:54.039Z,7.10
2023-01-01T05:01:24.568Z,7.53
2023-01-01T05:03:52.263Z,5.43
2023-01-01T05:06:21.027Z,5.50
2023-01-01T05:08:50.803Z,4.97
2023-01-01T05:11:24.474Z,7.13
2023-01-01T05:13:53.591Z,6.88
2023-01-01T05:16:24.156Z,5.55
2023-01-01T05:18:51.843Z,6.63
2023-01-01T05:21:25.260Z,5.30
2023-01-01T05:24:00.656Z,5.90
2023-01-01T05:26:31.283Z,5.35
2023-01-01T05:28:59.764Z,6.28
2023-01-01T05:31:31.267Z,6.47
2023-01-01T05:36:28.286Z,6.15
2023-01-01T05:38:56.204Z,6.57
2023-01-01T05:41:23.849Z,7.40
2023-01-01T05:43:52.118Z,6.53
2023-01-01T05:46:22.370Z,5.32
2023-01-01T05:48:50.140Z,4.88
2023-01-01T05:51:20.568Z,6.25
2023-01-01T05:53:48.145Z,6.15
2023-01-01T05:56:16.395Z,5.07
2023-01-01T05:58:44.402Z,4.43
2023-01-01T06:01:18.218Z,6.13
2023-01-01T06:03:45.425Z,5.97
2023-01-01T06:06:15.462Z,7.00
2023-01-01T06:08:42.799Z,5.05
2023-01-01T06:11:12.910Z,6.93
2023-01-01T06:13:39.859Z,6.13
2023-01-01T06:16:07.513Z,7.53
2023-01-01T06:18:35.454Z,4.97
2023-01-01T06:21:10.419Z,6.43
2023-01-01T06:23:37.888Z,6.07
2023-01-01T06:26:16.490Z,5.00
2023-01-01T06:28:44.283Z,6.78
2023-01-01T06:31:13.719Z,10.55
2023-01-01T06:33:41.496Z,6.88
2023-01-01T06:36:11.348Z,7.57
2023-01-01T06:38:42.291Z,6.97
2023-01-01T06:41:15.364Z,5.72
2023-01-01T06:43:42.640Z,5.38
2023-01-01T06:46:23.365Z,8.75
2023-01-01T06:48:55.831Z,7.40
2023-01-01T06:51:25.508Z,5.57
2023-01-01T06:53:53.619Z,6.40
2023-01-01T06:56:21.506Z,5.85
2023-01-01T06:58:49.403Z,5.30
2023-01-01T07:01:19.216Z,7.05
2023-01-01T07:03:53.257Z,7.60
2023-01-01T07:06:21.231Z,7.13
2023-01-01T07:08:48.179Z,8.05
2023-01-01T07:11:15.403Z,8.57
2023-01-01T07:13:44.395Z,5.55
2023-01-01T07:16:13.350Z,6.85
2023-01-01T07:18:40.997Z,5.07
2023-01-01T07:21:33.862Z,6.43
2023-01-01T07:24:02.835Z,5.63
2023-01-01T07:26:31.702Z,7.18
2023-01-01T07:29:06.237Z,5.28
2023-01-01T07:31:37.444Z,7.18
2023-01-01T07:34:06.147Z,5.32
2023-01-01T07:36:33.677Z,8.88
2023-01-01T07:39:00.657Z,8.32
2023-01-01T07:41:27.928Z,5.00
2023-01-01T07:43:54.796Z,7.70
2023-01-01T07:46:22.074Z,8.60
2023-01-01T07:48:49.036Z,5.40
2023-01-01T07:51:16.280Z,6.95
2023-01-01T07:53:43.814Z,7.72
2023-01-01T07:56:11.259Z,6.13
2023-01-01T07:58:41.980Z,5.85
2023-01-01T08:01:15.856Z,7.13
2023-01-01T08:03:44.416Z,6.78
2023-01-01T08:06:13.675Z,6.20
2023-01-01T08:08:41.384Z,6.85
2023-01-01T08:11:09.095Z,11.50
2023-01-01T08:13:36.084Z,5.07
2023-01-01T08:16:03.561Z,6.88
2023-01-01T08:18:30.565Z,6.45
2023-01-01T08:20:57.807Z,5.85
2023-01-01T08:23:24.854Z,8.82
2023-01-01T08:25:52.341Z,8.20
2023-01-01T08:28:20.232Z,11.23
2023-01-01T08:30:47.481Z,6.40
2023-01-01T08:33:14.451Z,8.63
2023-01-01T08:35:42.761Z,6.07
2023-01-01T08:38:12.802Z,5.28
2023-01-01T08:40:40.387Z,7.50
2023-01-01T08:43:07.509Z,5.47
2023-01-01T08:45:34.900Z,7.28
2023-01-01T08:48:01.825Z,7.75
2023-01-01T08:50:29.047Z,7.18
2023-01-01T08:52:58.311Z,10.93
2023-01-01T08:55:25.613Z,8.30
2023-01-01T08:57:52.582Z,8.23
2023-01-01T09:00:21.023Z,10.98
2023-01-01T09:02:47.988Z,7.93
2023-01-01T09:05:15.692Z,6.85
2023-01-01T09:07:42.744Z,9.50
2023-01-01T09:10:10.337Z,9.48
2023-01-01T09:12:37.263Z,14.60
2023-01-01T09:15:05.158Z,6.25
2023-01-01T09:17:32.294Z,7.78
2023-01-01T09:20:00.045Z,7.68
2023-01-01T09:22:28.211Z,7.53
2023-01-01T09:24:55.509Z,8.93
2023-01-01T09:27:22.693Z,7.65
2023-01-01T09:29:49.849Z,7.38
2023-01-01T09:32:16.840Z,7.65
2023-01-01T09:34:50.349Z,6.60
2023-01-01T09:37:19.233Z,10.77
2023-01-01T09:39:46.677Z,8.40
2023-01-01T09:42:27.027Z,8.80
2023-01-01T09:44:54.670Z,12.20
2023-01-01T09:47:40.208Z,11.27
2023-01-01T09:50:20.219Z,7.45
2023-01-01T09:53:01.115Z,9.48
2023-01-01T09:55:35.054Z,13.55
2023-01-01T09:58:02.205Z,10.85
2023-01-01T10:00:35.397Z,13.25
2023-01-01T10:03:28.007Z,7.00
2023-01-01T10:06:00.352Z,12.35
2023-01-01T10:08:41.212Z,10.20
2023-01-01T10:11:20.314Z,9.93
2023-01-01T10:13:47.604Z,9.25
2023-01-01T10:16:28.582Z,9.88
2023-01-01T10:18:59.032Z,6.27
2023-01-01T10:21:36.674Z,7.05
2023-01-01T10:24:32.916Z,11.43
2023-01-01T10:27:04.525Z,10.10
2023-01-01T10:29:44.247Z,8.50
2023-01-01T10:32:19.529Z,9.65
2023-01-01T10:34:47.875Z,10.98
2023-01-01T10:37:15.532Z,12.27
2023-01-01T10:39:45.017Z,8.95
2023-01-01T10:42:13.682Z,11.13
2023-01-01T10:44:41.814Z,8.50
2023-01-01T10:47:29.470Z,9.00
2023-01-01T10:50:02.748Z,13.00
2023-01-01T10:52:41.444Z,8.77
2023-01-01T10:55:23.746Z,12.48
2023-01-01T10:57:50.984Z,7.18
2023-01-01T11:00:26.652Z,13.07
2023-01-01T11:03:20.480Z,10.00
2023-01-01T11:06:19.101Z,8.35
2023-01-01T11:08:53.054Z,7.07
2023-01-01T11:11:28.382Z,10.52
2023-01-01T11:14:01.503Z,12.30
2023-01-01T11:16:29.719Z,13.07
2023-01-01T11:19:24.795Z,10.40
2023-01-01T11:21:51.832Z,9.85
2023-01-01T11:24:24.001Z,13.00
2023-01-01T11:26:55.103Z,17.33
2023-01-01T11:29:28.779Z,11.23
2023-01-01T11:31:58.426Z,8.80
2023-01-01T11:34:36.342Z,9.95
2023-01-01T11:37:26.535Z,9.80
2023-01-01T11:39:55.799Z,9.05
2023-01-01T11:42:29.099Z,7.13
2023-01-01T11:45:37.401Z,8.15
2023-01-01T11:48:12.448Z,8.35
2023-01-01T11:50:41.761Z,11.32
2023-01-01T11:53:24.501Z,7.60
2023-01-01T11:56:03.568Z,10.45
2023-01-01T11:58:36.571Z,8.63
2023-01-01T12:01:10.467Z,8.18
2023-01-01T12:03:47.224Z,8.20
2023-01-01T12:06:27.337Z,9.27
2023-01-01T12:09:06.348Z,6.82
2023-01-01T12:11:52.695Z,7.68
2023-01-01T12:14:33.123Z,10.27
2023-01-01T12:17:05.502Z,10.02
2023-01-01T12:19:41.351Z,14.93
2023-01-01T12:22:19.332Z,8.38
2023-01-01T12:24:48.502Z,9.25
2023-01-01T12:27:18.859Z,10.35
2023-01-01T12:29:54.888Z,7.63
2023-01-01T12:32:37.558Z,12.63
2023-01-01T12:35:32.683Z,7.05
2023-01-01T12:38:19.205Z,12.35
2023-01-01T12:41:41.938Z,10.50
2023-01-01T12:44:20.898Z,9.27
2023-01-01T12:47:12.360Z,6.47
2023-01-01T12:52:20.374Z,13.77
2023-01-01T12:54:59.484Z,12.60
2023-01-01T12:57:39.954Z,10.02
2023-01-01T13:00:19.881Z,15.10
2023-01-01T13:02:49.235Z,6.72
2023-01-01T13:05:26.280Z,7.53
2023-01-01T13:08:00.302Z,9.55
2023-01-01T13:10:34.383Z,5.45
2023-01-01T13:13:02.161Z,6.72
2023-01-01T13:15:38.606Z,11.75
2023-01-01T13:18:13.113Z,12.27
2023-01-01T13:20:55.049Z,8.52
2023-01-01T13:23:38.523Z,9.18
2023-01-01T13:26:18.403Z,15.52
2023-01-01T13:28:57.585Z,8.05
2023-01-01T13:31:41.106Z,13.43
2023-01-01T13:34:31.565Z,9.32
2023-01-01T13:37:11.205Z,9.80
2023-01-01T13:40:13.646Z,7.30
2023-01-01T13:43:06.715Z,9.45
2023-01-01T13:49:00.915Z,7.45
2023-01-01T13:52:07.034Z,8.25
2023-01-01T13:55:04.139Z,9.07
2023-01-01T13:57:49.849Z,8.57
2023-01-01T14:00:24.144Z,7.50
2023-01-01T14:02:59.704Z,10.80
2023-01-01T14:05:33.838Z,6.30
2023-01-01T14:08:01.896Z,8.00
2023-01-01T14:10:32.012Z,9.65
2023-01-01T14:13:10.943Z,11.07
2023-01-01T14:15:40.725Z,9.25
2023-01-01T14:18:15.577Z,7.90
2023-01-01T14:20:44.883Z,8.73
2023-01-01T14:23:17.161Z,8.13
2023-01-01T14:25:45.489Z,9.38
2023-01-01T14:28:24.336Z,10.68
2023-01-01T14:30:53.498Z,10.00
2023-01-01T14:33:27.114Z,10.35
2023-01-01T14:35:56.713Z,10.07
2023-01-01T14:38:35.431Z,6.28
2023-01-01T14:41:14.216Z,8.50
2023-01-01T14:43:44.106Z,12.02
2023-01-01T14:46:19.110Z,9.23
2023-01-01T14:48:49.395Z,8.95
2023-01-01T14:51:22.562Z,8.30
2023-01-01T14:53:51.611Z,9.15
2023-01-01T14:56:37.229Z,9.80
2023-01-01T14:59:12.109Z,9.00
2023-01-01T15:01:42.785Z,9.77
2023-01-01T15:04:23.314Z,10.77
2023-01-01T15:06:59.392Z,6.93
2023-01-01T15:09:28.795Z,8.52
2023-01-01T15:11:57.632Z,12.55
2023-01-01T15:14:38.437Z,6.18
2023-01-01T15:17:11.503Z,12.70
2023-01-01T15:19:43.605Z,7.70
2023-01-01T15:22:16.001Z,8.23
2023-01-01T15:24:45.666Z,11.75
2023-01-01T15:27:27.220Z,7.78
2023-01-01T15:29:56.960Z,7.75
2023-01-01T15:32:36.627Z,10.88
2023-01-01T15:35:22.682Z,7.85
2023-01-01T15:37:56.509Z,6.13
2023-01-01T15:40:23.474Z,7.25
2023-01-01T15:42:56.684Z,10.07
2023-01-01T15:45:27.909Z,9.80
2023-01-01T15:48:10.584Z,7.13
2023-01-01T15:50:44.176Z,7.57
2023-01-01T15:53:29.596Z,8.40
2023-01-01T15:56:10.183Z,8.85
2023-01-01T15:58:48.273Z,8.65
2023-01-01T16:01:21.717Z,8.73
2023-01-01T16:03:52.358Z,8.48
2023-01-01T16:06:21.762Z,7.43
2023-01-01T16:08:49.205Z,7.05
2023-01-01T16:11:16.217Z,10.15
2023-01-01T16:13:43.469Z,9.43
2023-01-01T16:16:30.039Z,10.07
2023-01-01T16:18:58.148Z,7.43
2023-01-01T16:21:28.273Z,10.68
2023-01-01T16:23:56.152Z,10.15
2023-01-01T16:26:23.207Z,9.25
2023-01-01T16:28:50.858Z,8.98
2023-01-01T16:31:26.631Z,8.30
2023-01-01T16:33:56.444Z,10.43
2023-01-01T16:36:23.643Z,9.00
2023-01-01T16:38:50.868Z,7.55
2023-01-01T16:41:18.529Z,6.82
2023-01-01T16:43:47.152Z,9.00
2023-01-01T16:46:15.248Z,10.48
2023-01-01T16:48:42.872Z,11.77
2023-01-01T16:51:18.768Z,8.63
2023-01-01T16:53:46.999Z,11.15
2023-01-01T16:56:14.682Z,10.60
2023-01-01T16:58:52.344Z,11.30
2023-01-01T17:01:22.684Z,8.50
2023-01-01T17:03:50.450Z,10.68
2023-01-01T17:06:17.911Z,7.78
2023-01-01T17:08:45.322Z,7.32
2023-01-01T17:11:17.647Z,9.57
2023-01-01T17:13:46.778Z,10.30
2023-01-01T17:16:23.540Z,9.60
2023-01-01T17:21:40.494Z,11.02
2023-01-01T17:24:07.951Z,20.55
2023-01-01T17:26:35.005Z,11.73
2023-01-01T17:29:03.099Z,11.13
2023-01-01T17:31:30.271Z,9.15
2023-01-01T17:33:57.757Z,8.38
2023-01-01T17:36:27.390Z,8.20
2023-01-01T17:38:55.279Z,10.43
2023-01-01T17:41:22.868Z,8.02
2023-01-01T17:43:51.537Z,10.60
2023-01-01T17:46:26.499Z,12.65
2023-01-01T17:48:54.174Z,9.68
2023-01-01T17:51:21.759Z,12.38
2023-01-01T17:53:50.451Z,13.52
2023-01-01T17:56:18.920Z,9.45
2023-01-01T17:58:47.905Z,12.20
2023-01-01T18:01:24.020Z,9.32
2023-01-01T18:03:54.179Z,13.15
2023-01-01T18:06:21.650Z,8.52
2023-01-01T18:08:49.422Z,11.90
2023-01-01T18:11:16.359Z,11.77
2023-01-01T18:13:43.632Z,11.10
2023-01-01T18:16:10.858Z,10.00
2023-01-01T18:18:39.750Z,10.95
2023-01-01T18:21:10.364Z,10.45
2023-01-01T18:23:39.992Z,9.23
2023-01-01T18:26:09.484Z,10.43
2023-01-01T18:28:37.432Z,12.38
2023-01-01T18:31:16.963Z,11.40
2023-01-01T18:33:46.835Z,12.52
2023-01-01T18:36:20.698Z,10.68
2023-01-01T18:39:20.805Z,11.68
2023-01-01T18:42:09.324Z,13.50
2023-01-01T18:44:36.612Z,12.00
2023-01-01T18:47:06.468Z,12.88
2023-01-01T18:49:35.623Z,11.20
2023-01-01T18:52:05.419Z,13.40
2023-01-01T18:54:33.812Z,13.55
2023-01-01T18:57:29.154Z,14.10
2023-01-01T19:00:17.009Z,13.65
2023-01-01T19:02:50.267Z,16.15
2023-01-01T19:05:24.783Z,11.90
2023-01-01T19:07:59.338Z,13.25
2023-01-01T19:10:34.316Z,12.40
2023-01-01T19:13:29.263Z,12.10
2023-01-01T19:16:02.870Z,10.73
2023-01-01T19:18:32.751Z,15.90
2023-01-01T19:21:14.649Z,10.93
2023-01-01T19:23:52.408Z,12.40
2023-01-01T19:26:28.753Z,11.80
2023-01-01T19:28:57.737Z,11.18
2023-01-01T19:31:24.998Z,10.98
2023-01-01T19:33:51.975Z,13.40
2023-01-01T19:36:20.324Z,14.55
2023-01-01T19:38:47.408Z,11.98
2023-01-01T19:41:14.561Z,15.40
2023-01-01T19:43:41.511Z,14.27
2023-01-01T19:46:09.010Z,14.10
2023-01-01T19:48:36.125Z,14.73
2023-01-01T19:51:03.369Z,13.85
2023-01-01T19:53:30.391Z,17.80
2023-01-01T19:55:57.607Z,14.10
2023-01-01T19:58:24.602Z,14.20
2023-01-01T20:00:52.944Z,17.30
2023-01-01T20:06:09.618Z,16.50
2023-01-01T20:08:40.077Z,13.27
2023-01-01T20:11:08.652Z,14.82
2023-01-01T20:13:35.672Z,15.38
2023-01-01T20:16:03.398Z,13.02
2023-01-01T20:18:30.425Z,13.57
2023-01-01T20:21:21.954Z,15.80
2023-01-01T20:23:52.474Z,11.82
2023-01-01T20:26:20.837Z,15.50
2023-01-01T20:29:06.533Z,14.30
2023-01-01T20:31:33.747Z,13.85
2023-01-01T20:34:00.888Z,20.67
2023-01-01T20:36:47.047Z,15.45
2023-01-01T20:39:13.991Z,16.50
2023-01-01T20:41:41.266Z,16.48
2023-01-01T20:44:08.305Z,17.42
2023-01-01T20:46:38.283Z,12.95
2023-01-01T20:49:05.976Z,15.45
2023-01-01T20:51:33.400Z,12.63
2023-01-01T20:54:00.483Z,16.27
2023-01-01T20:56:27.775Z,13.98
2023-01-01T20:59:00.144Z,14.90
2023-01-01T21:01:32.192Z,16.17
2023-01-01T21:03:59.323Z,15.05
2023-01-01T21:06:26.579Z,15.90
2023-01-01T21:08:55.438Z,16.52
2023-01-01T21:11:22.883Z,13.43
2023-01-01T21:13:50.128Z,16.75
2023-01-01T21:16:18.734Z,17.23
2023-01-01T21:18:47.146Z,18.05
2023-01-01T21:21:32.980Z,15.02
2023-01-01T21:24:30.360Z,15.45
2023-01-01T21:27:08.609Z,12.43
2023-01-01T21:29:39.597Z,17.73
2023-01-01T21:32:12.947Z,16.70
2023-01-01T21:34:43.860Z,23.50
2023-01-01T21:37:54.635Z,18.20
2023-01-01T21:40:38.544Z,15.18
2023-01-01T21:43:05.878Z,16.20
2023-01-01T21:45:42.776Z,15.05
2023-01-01T21:48:16.592Z,16.67
2023-01-01T21:50:46.515Z,16.58
2023-01-01T21:53:19.529Z,17.00
2023-01-01T21:55:52.555Z,14.63
2023-01-01T21:58:41.273Z,14.73
2023-01-01T22:01:27.668Z,21.73
2023-01-01T22:04:21.398Z,18.38
2023-01-01T22:06:51.464Z,13.60
2023-01-01T22:09:32.701Z,16.55
2023-01-01T22:12:14.789Z,19.70
2023-01-01T22:14:47.217Z,18.45
2023-01-01T22:17:36.782Z,13.68
2023-01-01T22:20:24.827Z,18.23
2023-01-01T22:22:51.804Z,19.20
2023-01-01T22:25:28.437Z,20.98
2023-01-01T22:27:56.252Z,16.40
2023-01-01T22:30:26.211Z,17.75
2023-01-01T22:32:58.161Z,15.90
2023-01-01T22:35:30.493Z,12.45
2023-01-01T22:37:59.797Z,16.48
2023-01-01T22:40:30.984Z,17.70
2023-01-01T22:43:09.343Z,17.70
2023-01-01T22:45:43.239Z,15.05
2023-01-01T22:48:19.025Z,19.83
2023-01-01T22:50:46.475Z,17.73
2023-01-01T22:53:13.353Z,14.32
2023-01-01T22:55:40.550Z,16.27
2023-01-01T22:58:07.421Z,15.85
2023-01-01T23:00:34.652Z,21.52
2023-01-01T23:03:01.847Z,19.75
2023-01-01T23:05:29.966Z,15.45
2023-01-01T23:07:56.956Z,14.45
2023-01-01T23:10:24.142Z,15.65
2023-01-01T23:12:51.052Z,17.02
2023-01-01T23:15:37.064Z,15.32
2023-01-01T23:18:05.926Z,15.20
2023-01-01T23:20:33.315Z,16.13
2023-01-01T23:23:00.213Z,19.30
2023-01-01T23:25:28.773Z,15.30
2023-01-01T23:27:55.962Z,15.02
2023-01-01T23:30:23.228Z,16.92
2023-01-01T23:32:50.406Z,28.15
2023-01-01T23:35:17.933Z,16.75
2023-01-01T23:37:44.966Z,18.58
2023-01-01T23:40:12.387Z,16.38
2023-01-01T23:42:39.240Z,20.30
2023-01-01T23:45:06.832Z,17.13
2023-01-01T23:47:34.042Z,16.40
2023-01-01T23:50:01.367Z,20.33
2023-01-01T23:52:28.507Z,16.42
2023-01-01T23:54:55.813Z,15.93
2023-01-01T23:57:22.810Z,17.33
2023-01-01T23:59:50.552Z,18.30
